< < Back
Terminal Aerodrome Forecast


Current Version              Previous Versions:   1  2  3  4  5  6  7  8  9  

Terminal Aerodrome Forecast

352
FTUS42 KCHS 290931 AAA
TAFSAV
TAF AMD
KSAV 290931Z 2910/3006 VRB03KT P6SM SCT015
     FM291400 07007KT P6SM SCT040
     FM300000 VRB03KT P6SM SCT015=



Latest METAR

348
SAUS80 KWBC 291100 CCA
MTRSAV
METAR KSAV 291053Z 01003KT 8SM FEW010 SCT045 SCT070 BKN250 24/23 A2996
RMK AO2 SLP145 T02440233


USA.gov is the U.S. government's official web portal to all federal, state and local government web resources and services.